Time;durP1;ratioP1;P1;durP2;ratioP2;P2;SDS_P1;SDS_P2;PMS_P1;PMS_P2;Temp;Humidity;BMP_temperature;BMP_pressure;BME280_temperature;BME280_humidity;BME280_pressure;Samples;Min_cycle;Max_cycle;Signal;HPM_P1;HPM_P2
2022/11/09 00:02:06;;;;;;;3.70;1.60;;;;;;;;;;4983800;28;20038;-61
2022/11/09 00:04:31;;;;;;;2.25;1.52;;;;;;;;;;4981191;28;20231;-61
2022/11/09 00:06:57;;;;;;;2.15;1.50;;;;;;;;;;4972029;28;20030;-60
2022/11/09 00:09:22;;;;;;;3.63;1.67;;;;;;;;;;4978167;28;20468;-61
2022/11/09 00:11:48;;;;;;;2.85;1.60;;;;;;;;;;4986355;28;20062;-60
2022/11/09 00:14:16;;;;;;;4.28;1.63;;;;;;;;;;4981521;28;20041;-61
2022/11/09 00:16:42;;;;;;;3.33;1.70;;;;;;;;;;4984106;28;20403;-60
2022/11/09 00:19:07;;;;;;;3.42;1.70;;;;;;;;;;4978211;28;20030;-60
2022/11/09 00:21:33;;;;;;;2.45;1.52;;;;;;;;;;4990052;28;20037;-60
2022/11/09 00:23:58;;;;;;;3.08;1.60;;;;;;;;;;4982545;28;20427;-60
2022/11/09 00:26:24;;;;;;;3.50;1.50;;;;;;;;;;4972317;28;20056;-60
2022/11/09 00:28:50;;;;;;;3.70;1.70;;;;;;;;;;4980118;28;20114;-60
2022/11/09 00:31:17;;;;;;;3.03;1.60;;;;;;;;;;4971913;28;20476;-61
2022/11/09 00:33:53;;;;;;;3.03;1.63;;;;;;;;;;4971576;28;20054;-60
2022/11/09 00:36:19;;;;;;;3.00;1.80;;;;;;;;;;4972052;28;20066;-60
2022/11/09 00:38:50;;;;;;;2.20;1.58;;;;;;;;;;4981104;28;20075;-60
2022/11/09 00:41:16;;;;;;;3.60;1.83;;;;;;;;;;4971530;28;20122;-61
2022/11/09 00:43:41;;;;;;;2.55;1.63;;;;;;;;;;4972094;28;20117;-60
2022/11/09 00:46:07;;;;;;;3.33;1.80;;;;;;;;;;4977095;28;20042;-60
2022/11/09 00:48:34;;;;;;;3.28;1.65;;;;;;;;;;4973374;28;20047;-60
2022/11/09 00:50:59;;;;;;;3.67;1.77;;;;;;;;;;4973553;28;20038;-60
2022/11/09 00:53:25;;;;;;;4.22;1.70;;;;;;;;;;4972112;28;20396;-60
2022/11/09 00:55:55;;;;;;;3.88;1.55;;;;;;;;;;4971278;28;20471;-60
2022/11/09 00:58:21;;;;;;;4.15;1.65;;;;;;;;;;4970581;28;20027;-60
2022/11/09 01:00:46;;;;;;;2.75;1.67;;;;;;;;;;4971810;28;20472;-60
2022/11/09 01:03:12;;;;;;;4.60;1.63;;;;;;;;;;4979388;28;20027;-60
2022/11/09 01:05:40;;;;;;;2.30;1.60;;;;;;;;;;4975439;28;20038;-60
2022/11/09 01:08:06;;;;;;;2.97;1.80;;;;;;;;;;4983041;28;20101;-60
2022/11/09 01:10:32;;;;;;;2.67;1.73;;;;;;;;;;4971487;28;20507;-60
2022/11/09 01:12:57;;;;;;;2.53;1.30;;;;;;;;;;4982405;28;20538;-60
2022/11/09 01:15:23;;;;;;;2.83;1.65;;;;;;;;;;4994531;28;20038;-60
2022/11/09 01:17:48;;;;;;;3.67;1.70;;;;;;;;;;4993767;28;20113;-60
2022/11/09 01:20:15;;;;;;;2.65;1.60;;;;;;;;;;4988832;28;20123;-60
2022/11/09 01:22:40;;;;;;;3.67;1.65;;;;;;;;;;4978223;28;20078;-60
2022/11/09 01:25:06;;;;;;;2.60;1.70;;;;;;;;;;4985747;28;20034;-60
2022/11/09 01:27:32;;;;;;;4.28;1.70;;;;;;;;;;4994054;28;20041;-60
2022/11/09 01:29:57;;;;;;;3.95;1.60;;;;;;;;;;4993937;28;20034;-60
2022/11/09 01:32:23;;;;;;;2.97;1.60;;;;;;;;;;4978965;28;20038;-60
2022/11/09 01:34:48;;;;;;;1.52;1.30;;;;;;;;;;4982088;28;20035;-60
2022/11/09 01:37:14;;;;;;;2.35;1.60;;;;;;;;;;4974951;28;20069;-60
2022/11/09 01:39:39;;;;;;;2.30;1.70;;;;;;;;;;4978995;28;20046;-60
2022/11/09 01:42:05;;;;;;;3.30;1.70;;;;;;;;;;4983197;28;20094;-60
2022/11/09 01:44:31;;;;;;;3.08;1.48;;;;;;;;;;4991648;28;20042;-60
2022/11/09 01:46:58;;;;;;;3.17;1.90;;;;;;;;;;4975566;28;20035;-60
2022/11/09 01:49:39;;;;;;;3.00;1.63;;;;;;;;;;4972750;28;20046;-59
2022/11/09 01:52:19;;;;;;;3.33;1.75;;;;;;;;;;4976440;28;20038;-59
2022/11/09 01:54:52;;;;;;;3.10;1.60;;;;;;;;;;4982071;28;20084;-59
2022/11/09 01:57:26;;;;;;;4.15;1.67;;;;;;;;;;4973787;28;20042;-60
2022/11/09 02:00:01;;;;;;;3.78;1.50;;;;;;;;;;4975089;28;20139;-59
2022/11/09 02:02:27;;;;;;;3.40;1.70;;;;;;;;;;4977010;28;20069;-60
2022/11/09 02:05:04;;;;;;;2.95;1.60;;;;;;;;;;4980694;28;20073;-59
2022/11/09 02:07:29;;;;;;;3.10;1.40;;;;;;;;;;4974718;28;20081;-59
2022/11/09 02:10:03;;;;;;;2.92;1.60;;;;;;;;;;4974498;28;20031;-59
2022/11/09 02:12:32;;;;;;;1.65;1.30;;;;;;;;;;4978326;28;20030;-60
2022/11/09 02:15:00;;;;;;;3.60;1.63;;;;;;;;;;4981136;28;20088;-59
2022/11/09 02:17:26;;;;;;;4.65;1.65;;;;;;;;;;4979707;28;20031;-60
2022/11/09 02:19:52;;;;;;;2.05;1.50;;;;;;;;;;4993536;28;20072;-60
2022/11/09 02:22:17;;;;;;;1.75;1.30;;;;;;;;;;4982990;28;20047;-60
2022/11/09 02:24:42;;;;;;;4.45;1.40;;;;;;;;;;4973658;28;20085;-59
2022/11/09 02:27:08;;;;;;;3.60;1.75;;;;;;;;;;4987826;28;20049;-59
2022/11/09 02:29:37;;;;;;;3.85;1.83;;;;;;;;;;4989236;28;20480;-59
2022/11/09 02:32:07;;;;;;;3.10;1.70;;;;;;;;;;4981764;28;20034;-60
2022/11/09 02:34:32;;;;;;;3.50;1.70;;;;;;;;;;4990185;28;20042;-60
2022/11/09 02:36:58;;;;;;;5.40;1.80;;;;;;;;;;4982891;28;20383;-60
2022/11/09 02:39:25;;;;;;;4.13;1.52;;;;;;;;;;4981703;28;20035;-62
2022/11/09 02:41:54;;;;;;;3.00;1.50;;;;;;;;;;4981641;28;20030;-61
2022/11/09 02:44:19;;;;;;;2.97;1.80;;;;;;;;;;4987516;28;20628;-59
2022/11/09 02:46:45;;;;;;;5.75;1.70;;;;;;;;;;4985275;28;20030;-62
2022/11/09 02:49:10;;;;;;;2.83;1.52;;;;;;;;;;4975815;28;20117;-61
2022/11/09 02:51:36;;;;;;;5.68;1.67;;;;;;;;;;4980000;28;20439;-59
2022/11/09 02:54:02;;;;;;;3.35;1.52;;;;;;;;;;4983700;28;20042;-61
2022/11/09 02:56:27;;;;;;;3.08;1.40;;;;;;;;;;4966309;28;20219;-61
2022/11/09 02:58:53;;;;;;;2.67;1.58;;;;;;;;;;4982734;28;20035;-61
2022/11/09 03:01:18;;;;;;;4.15;1.63;;;;;;;;;;4982230;28;20031;-61
2022/11/09 03:03:44;;;;;;;4.45;1.95;;;;;;;;;;4972808;28;20483;-61
2022/11/09 03:06:09;;;;;;;2.97;1.40;;;;;;;;;;4983260;28;20070;-61
2022/11/09 03:08:35;;;;;;;3.42;1.52;;;;;;;;;;4980549;28;20177;-61
2022/11/09 03:11:01;;;;;;;5.38;2.15;;;;;;;;;;4972757;28;21056;-60
2022/11/09 03:13:26;;;;;;;3.92;1.65;;;;;;;;;;5004154;28;20458;-62
2022/11/09 03:15:52;;;;;;;5.00;1.70;;;;;;;;;;4976499;28;20164;-60
2022/11/09 03:18:17;;;;;;;4.97;1.80;;;;;;;;;;4974210;28;20035;-60
2022/11/09 03:20:43;;;;;;;3.58;1.70;;;;;;;;;;4973764;28;20116;-60
2022/11/09 03:23:09;;;;;;;2.92;1.50;;;;;;;;;;4989453;28;20050;-60
2022/11/09 03:25:35;;;;;;;4.55;1.67;;;;;;;;;;4991849;28;20140;-60
2022/11/09 03:28:03;;;;;;;3.50;1.65;;;;;;;;;;4979104;28;20049;-60
2022/11/09 03:30:28;;;;;;;3.95;1.50;;;;;;;;;;4977770;28;20455;-60
2022/11/09 03:33:08;;;;;;;5.55;1.80;;;;;;;;;;4971110;28;20039;-60
2022/11/09 03:35:35;;;;;;;6.15;1.75;;;;;;;;;;4971891;28;20057;-60
2022/11/09 03:38:01;;;;;;;5.82;2.00;;;;;;;;;;4973986;28;20034;-60
2022/11/09 03:40:26;;;;;;;3.85;1.60;;;;;;;;;;4972725;28;20031;-60
2022/11/09 03:42:51;;;;;;;6.03;1.58;;;;;;;;;;4973941;28;20030;-60
2022/11/09 03:45:17;;;;;;;4.53;1.33;;;;;;;;;;4988368;28;20026;-60
2022/11/09 03:47:43;;;;;;;4.38;1.50;;;;;;;;;;4990683;28;20108;-60
2022/11/09 03:50:10;;;;;;;3.97;1.60;;;;;;;;;;4985858;28;20038;-61
2022/11/09 03:52:35;;;;;;;5.25;1.55;;;;;;;;;;4974970;28;20391;-60
2022/11/09 03:55:02;;;;;;;2.95;1.60;;;;;;;;;;4972333;28;20039;-60
2022/11/09 03:57:28;;;;;;;2.83;1.20;;;;;;;;;;4972442;28;20038;-61
2022/11/09 03:59:53;;;;;;;5.85;1.90;;;;;;;;;;4975059;28;20035;-60
2022/11/09 04:02:18;;;;;;;4.43;1.67;;;;;;;;;;4982664;28;20109;-60
2022/11/09 04:04:44;;;;;;;4.72;1.38;;;;;;;;;;4970726;28;20035;-60
2022/11/09 04:07:10;;;;;;;4.53;1.73;;;;;;;;;;4988492;28;20426;-60
2022/11/09 04:09:36;;;;;;;4.50;1.55;;;;;;;;;;4981487;28;20034;-60
2022/11/09 04:12:01;;;;;;;3.78;1.65;;;;;;;;;;4986112;28;20069;-60
2022/11/09 04:14:27;;;;;;;5.85;1.60;;;;;;;;;;4988087;28;20069;-61
2022/11/09 04:16:52;;;;;;;4.18;1.58;;;;;;;;;;4972482;28;20037;-60
2022/11/09 04:19:17;;;;;;;9.70;1.73;;;;;;;;;;4973445;28;20054;-60
2022/11/09 04:21:43;;;;;;;3.90;1.50;;;;;;;;;;4980147;28;20039;-60
2022/11/09 04:24:08;;;;;;;5.32;1.60;;;;;;;;;;4980725;28;20116;-60
2022/11/09 04:26:33;;;;;;;6.88;1.98;;;;;;;;;;4971381;28;20046;-60
2022/11/09 04:28:59;;;;;;;3.92;1.60;;;;;;;;;;4974580;28;20031;-60
2022/11/09 04:31:24;;;;;;;5.45;1.90;;;;;;;;;;4975756;28;20074;-60
2022/11/09 04:33:50;;;;;;;4.13;1.60;;;;;;;;;;4985044;28;20065;-60
2022/11/09 04:36:15;;;;;;;6.57;1.80;;;;;;;;;;4999112;28;20035;-60
2022/11/09 04:38:41;;;;;;;4.47;1.55;;;;;;;;;;4971806;28;20030;-62
2022/11/09 04:41:07;;;;;;;4.82;1.63;;;;;;;;;;4991294;28;20061;-62
2022/11/09 04:43:33;;;;;;;9.10;2.00;;;;;;;;;;4985629;28;20041;-61
2022/11/09 04:46:00;;;;;;;6.13;1.70;;;;;;;;;;4975503;28;20081;-60
2022/11/09 04:48:25;;;;;;;3.72;1.40;;;;;;;;;;4984034;28;20042;-61
2022/11/09 04:50:50;;;;;;;4.05;1.70;;;;;;;;;;4971096;28;20309;-61
2022/11/09 04:53:16;;;;;;;4.18;1.70;;;;;;;;;;4989281;28;20034;-60
2022/11/09 04:55:41;;;;;;;3.75;1.35;;;;;;;;;;4971841;28;20460;-61
2022/11/09 04:58:07;;;;;;;4.35;1.70;;;;;;;;;;4970571;28;20464;-61
2022/11/09 05:00:33;;;;;;;8.13;1.75;;;;;;;;;;4987407;28;20082;-61
2022/11/09 05:03:00;;;;;;;4.72;1.75;;;;;;;;;;4987084;28;20038;-60
2022/11/09 05:05:26;;;;;;;5.70;1.60;;;;;;;;;;4982707;28;20045;-61
2022/11/09 05:07:52;;;;;;;5.78;1.60;;;;;;;;;;4978789;28;20066;-61
2022/11/09 05:10:17;;;;;;;3.67;1.50;;;;;;;;;;4972637;28;20080;-61
2022/11/09 05:12:42;;;;;;;6.07;1.50;;;;;;;;;;4983485;28;20381;-61
2022/11/09 05:15:08;;;;;;;7.03;1.50;;;;;;;;;;4971658;28;20075;-61
2022/11/09 05:17:33;;;;;;;3.67;1.48;;;;;;;;;;4988410;28;20038;-62
2022/11/09 05:19:59;;;;;;;2.90;1.45;;;;;;;;;;4989405;28;20046;-61
2022/11/09 05:25:08;;;;;;;5.10;1.60;;;;;;;;;;4986405;28;20046;-61
2022/11/09 05:27:34;;;;;;;1.33;1.20;;;;;;;;;;4967036;28;20031;-61
2022/11/09 05:29:59;;;;;;;6.50;1.70;;;;;;;;;;4984298;28;20111;-61
2022/11/09 05:32:24;;;;;;;5.95;1.95;;;;;;;;;;4987507;28;20141;-61
2022/11/09 05:34:50;;;;;;;6.63;1.92;;;;;;;;;;4988596;28;20046;-61
2022/11/09 05:37:16;;;;;;;7.20;2.30;;;;;;;;;;4992152;28;20409;-61
2022/11/09 05:39:42;;;;;;;3.40;1.58;;;;;;;;;;4982686;28;20030;-60
2022/11/09 05:42:09;;;;;;;3.70;2.10;;;;;;;;;;4974466;28;20104;-62
2022/11/09 05:44:34;;;;;;;6.05;2.08;;;;;;;;;;4987951;28;20062;-61
2022/11/09 05:47:00;;;;;;;8.18;1.73;;;;;;;;;;5003886;28;20061;-61
2022/11/09 05:49:25;;;;;;;8.05;1.85;;;;;;;;;;4995025;28;20030;-61
2022/11/09 05:51:50;;;;;;;3.28;1.30;;;;;;;;;;4993614;28;20089;-65
2022/11/09 05:54:16;;;;;;;5.95;1.70;;;;;;;;;;4992573;28;20033;-64
2022/11/09 05:56:41;;;;;;;5.65;1.65;;;;;;;;;;4991106;28;20052;-65
2022/11/09 05:59:07;;;;;;;6.97;1.77;;;;;;;;;;4987133;28;20033;-65
2022/11/09 06:01:32;;;;;;;4.75;1.52;;;;;;;;;;4975692;28;20475;-65
2022/11/09 06:03:58;;;;;;;5.53;1.70;;;;;;;;;;4990741;28;20034;-66
2022/11/09 06:06:23;;;;;;;6.07;2.00;;;;;;;;;;4983204;28;20446;-66
2022/11/09 06:08:49;;;;;;;9.38;1.80;;;;;;;;;;4974773;28;20038;-65
2022/11/09 06:11:15;;;;;;;4.88;1.92;;;;;;;;;;4976016;28;20046;-64
2022/11/09 06:13:40;;;;;;;6.13;1.60;;;;;;;;;;4974940;28;20031;-65
2022/11/09 06:16:06;;;;;;;8.18;1.80;;;;;;;;;;4988271;28;20038;-66
2022/11/09 06:18:32;;;;;;;4.28;1.27;;;;;;;;;;4995196;28;20081;-65
2022/11/09 06:21:00;;;;;;;4.55;1.40;;;;;;;;;;4988347;28;20063;-64
2022/11/09 06:23:26;;;;;;;5.32;1.52;;;;;;;;;;4990665;28;20117;-64
2022/11/09 06:25:55;;;;;;;3.38;1.13;;;;;;;;;;4993578;28;20030;-65
2022/11/09 06:28:20;;;;;;;3.80;1.30;;;;;;;;;;4993523;28;20042;-64
2022/11/09 06:30:46;;;;;;;4.60;1.50;;;;;;;;;;4994031;28;20486;-66
2022/11/09 06:33:11;;;;;;;6.85;1.55;;;;;;;;;;4993136;28;20030;-65
2022/11/09 06:35:36;;;;;;;6.60;1.70;;;;;;;;;;4993055;28;20042;-64
2022/11/09 06:38:02;;;;;;;4.28;1.70;;;;;;;;;;4994312;28;20118;-65
2022/11/09 06:40:28;;;;;;;5.28;1.55;;;;;;;;;;4986242;28;20049;-65
2022/11/09 06:43:00;;;;;;;4.10;1.55;;;;;;;;;;4993198;28;20673;-66
2022/11/09 06:45:27;;;;;;;6.03;1.90;;;;;;;;;;4991309;28;20037;-65
2022/11/09 06:47:57;;;;;;;9.57;2.17;;;;;;;;;;4988488;28;20054;-65
2022/11/09 06:50:22;;;;;;;7.95;1.90;;;;;;;;;;4991904;28;20026;-65
2022/11/09 06:52:48;;;;;;;5.43;1.67;;;;;;;;;;4992133;28;20033;-65
2022/11/09 06:55:13;;;;;;;9.55;2.15;;;;;;;;;;4994789;28;20467;-65
2022/11/09 06:57:39;;;;;;;7.03;1.80;;;;;;;;;;4994255;28;20038;-64
2022/11/09 07:00:06;;;;;;;6.35;1.80;;;;;;;;;;4979543;28;20038;-67
2022/11/09 07:02:32;;;;;;;7.03;2.33;;;;;;;;;;4975002;28;20147;-65
2022/11/09 07:04:57;;;;;;;6.38;1.70;;;;;;;;;;4973770;28;20182;-66
2022/11/09 07:07:22;;;;;;;5.60;1.67;;;;;;;;;;4974635;28;20030;-66
2022/11/09 07:09:48;;;;;;;6.97;2.15;;;;;;;;;;4984293;28;20472;-63
2022/11/09 07:12:13;;;;;;;4.88;1.90;;;;;;;;;;4991715;28;20030;-63
2022/11/09 07:14:38;;;;;;;6.55;1.77;;;;;;;;;;4973851;28;20046;-69
2022/11/09 07:17:04;;;;;;;5.15;1.90;;;;;;;;;;4974540;28;20030;-64
2022/11/09 07:19:30;;;;;;;6.60;1.63;;;;;;;;;;4974564;28;20383;-63
2022/11/09 07:21:56;;;;;;;6.95;1.95;;;;;;;;;;4973247;28;20092;-63
2022/11/09 07:24:22;;;;;;;12.38;2.08;;;;;;;;;;4974392;28;20034;-63
2022/11/09 07:26:48;;;;;;;7.00;2.00;;;;;;;;;;4973386;28;20392;-62
2022/11/09 07:29:14;;;;;;;7.65;2.40;;;;;;;;;;4990171;28;20065;-63
2022/11/09 07:31:40;;;;;;;10.20;2.40;;;;;;;;;;4993289;28;20514;-62
2022/11/09 07:34:05;;;;;;;8.95;1.85;;;;;;;;;;5024961;28;20030;-63
2022/11/09 07:36:31;;;;;;;5.80;1.98;;;;;;;;;;4993525;28;20117;-63
2022/11/09 07:38:57;;;;;;;8.07;2.10;;;;;;;;;;4992533;28;20037;-63
2022/11/09 07:41:23;;;;;;;6.00;1.80;;;;;;;;;;4993471;28;20101;-63
2022/11/09 07:43:48;;;;;;;9.23;2.38;;;;;;;;;;4991697;28;20460;-67
2022/11/09 07:46:13;;;;;;;5.90;1.98;;;;;;;;;;4993510;28;20042;-63
2022/11/09 07:48:39;;;;;;;6.18;1.85;;;;;;;;;;4993285;28;20038;-63
2022/11/09 07:51:04;;;;;;;7.85;2.03;;;;;;;;;;4992914;28;20038;-62
2022/11/09 07:53:30;;;;;;;8.25;2.10;;;;;;;;;;4992266;28;20038;-63
2022/11/09 07:55:58;;;;;;;6.95;1.88;;;;;;;;;;4992215;28;20027;-64
2022/11/09 07:58:24;;;;;;;6.05;1.90;;;;;;;;;;4989753;28;20372;-63
2022/11/09 08:00:49;;;;;;;7.47;1.85;;;;;;;;;;4973728;28;20106;-67
2022/11/09 08:03:17;;;;;;;4.45;1.63;;;;;;;;;;4973640;28;20031;-66
2022/11/09 08:05:43;;;;;;;5.32;1.60;;;;;;;;;;4972708;28;20365;-65
2022/11/09 08:08:10;;;;;;;5.20;1.60;;;;;;;;;;4972351;28;20451;-66
2022/11/09 08:10:36;;;;;;;5.18;1.25;;;;;;;;;;4973408;28;20031;-65
2022/11/09 08:13:08;;;;;;;5.18;1.50;;;;;;;;;;4971501;28;20629;-67
2022/11/09 08:15:35;;;;;;;8.02;1.70;;;;;;;;;;4973326;28;20062;-67
2022/11/09 08:18:03;;;;;;;5.40;1.77;;;;;;;;;;4972454;28;20077;-66
2022/11/09 08:20:29;;;;;;;5.22;1.45;;;;;;;;;;4973269;28;20035;-66
2022/11/09 08:22:54;;;;;;;3.65;1.30;;;;;;;;;;4971207;28;20059;-66
2022/11/09 08:25:20;;;;;;;6.00;1.63;;;;;;;;;;4973141;28;20045;-66
2022/11/09 08:27:45;;;;;;;3.53;1.27;;;;;;;;;;5010517;28;20031;-65
2022/11/09 08:30:13;;;;;;;6.80;1.52;;;;;;;;;;4979631;28;20468;-66
2022/11/09 08:32:40;;;;;;;5.55;1.50;;;;;;;;;;4973245;28;20037;-66
2022/11/09 08:35:08;;;;;;;8.23;1.40;;;;;;;;;;4972676;28;20161;-66
2022/11/09 08:37:34;;;;;;;7.90;1.75;;;;;;;;;;4972930;28;20392;-66
2022/11/09 08:40:00;;;;;;;5.07;1.30;;;;;;;;;;4972120;28;20043;-66
2022/11/09 08:42:25;;;;;;;2.80;1.13;;;;;;;;;;4972813;28;20030;-66
2022/11/09 08:44:51;;;;;;;4.30;1.40;;;;;;;;;;4972043;28;20476;-66
2022/11/09 08:47:16;;;;;;;4.75;1.50;;;;;;;;;;4973299;28;20035;-65
2022/11/09 08:49:43;;;;;;;6.50;1.50;;;;;;;;;;4972729;28;20035;-66
2022/11/09 08:52:08;;;;;;;3.13;1.30;;;;;;;;;;4972733;28;20026;-67
2022/11/09 08:54:35;;;;;;;4.55;1.55;;;;;;;;;;4973135;28;20361;-67
2022/11/09 08:57:01;;;;;;;6.18;1.77;;;;;;;;;;4971990;28;20118;-67
2022/11/09 08:59:26;;;;;;;3.28;1.40;;;;;;;;;;4972881;28;20536;-68
2022/11/09 09:01:51;;;;;;;3.72;1.42;;;;;;;;;;4972174;28;20042;-67
2022/11/09 09:04:17;;;;;;;4.78;1.58;;;;;;;;;;4973361;28;20453;-67
2022/11/09 09:06:42;;;;;;;3.17;1.30;;;;;;;;;;4972916;28;20035;-65
2022/11/09 09:09:08;;;;;;;5.03;1.40;;;;;;;;;;4976070;28;20030;-68
2022/11/09 09:11:33;;;;;;;3.80;1.35;;;;;;;;;;4992330;28;20121;-66
2022/11/09 09:13:58;;;;;;;5.68;1.40;;;;;;;;;;4990422;28;20030;-66
2022/11/09 09:16:24;;;;;;;3.72;1.63;;;;;;;;;;4991954;28;20031;-67
2022/11/09 09:18:49;;;;;;;3.63;1.38;;;;;;;;;;4991055;28;20026;-66
2022/11/09 09:21:15;;;;;;;4.20;1.50;;;;;;;;;;4992242;28;20455;-67
2022/11/09 09:23:40;;;;;;;4.32;1.77;;;;;;;;;;4992251;28;20051;-63
2022/11/09 09:26:06;;;;;;;5.72;1.50;;;;;;;;;;4991213;28;20499;-64
2022/11/09 09:28:31;;;;;;;3.97;1.42;;;;;;;;;;4986836;28;20057;-64
2022/11/09 09:30:58;;;;;;;4.07;1.33;;;;;;;;;;4975149;28;20146;-64
2022/11/09 09:33:24;;;;;;;3.03;1.20;;;;;;;;;;4977880;28;20030;-68
2022/11/09 09:35:50;;;;;;;2.30;1.60;;;;;;;;;;5011684;28;20416;-65
2022/11/09 09:38:16;;;;;;;7.32;1.27;;;;;;;;;;5014557;28;20064;-65
2022/11/09 09:40:48;;;;;;;3.55;1.35;;;;;;;;;;5005326;28;20038;-67
2022/11/09 09:43:24;;;;;;;2.60;1.40;;;;;;;;;;4995845;28;20065;-66
2022/11/09 09:45:52;;;;;;;5.78;1.40;;;;;;;;;;4994696;28;20092;-65
2022/11/09 09:48:35;;;;;;;5.05;1.48;;;;;;;;;;4995739;28;20030;-65
2022/11/09 09:51:16;;;;;;;4.80;1.45;;;;;;;;;;4984425;28;20403;-64
2022/11/09 09:53:52;;;;;;;8.52;1.75;;;;;;;;;;4982173;28;20035;-64
2022/11/09 09:56:27;;;;;;;4.63;1.50;;;;;;;;;;4975852;28;20035;-66
2022/11/09 09:59:01;;;;;;;6.30;1.30;;;;;;;;;;5007621;28;20035;-65
2022/11/09 10:01:42;;;;;;;3.50;1.23;;;;;;;;;;4978664;28;20438;-64
2022/11/09 10:04:21;;;;;;;4.25;1.33;;;;;;;;;;4991307;28;20645;-66
2022/11/09 10:06:49;;;;;;;4.63;1.50;;;;;;;;;;4977154;28;20050;-64
2022/11/09 10:09:38;;;;;;;3.83;1.20;;;;;;;;;;4991024;28;20034;-65
2022/11/09 10:12:08;;;;;;;5.90;1.77;;;;;;;;;;4991607;28;20131;-66
2022/11/09 10:15:18;;;;;;;4.45;1.60;;;;;;;;;;4993553;28;20096;-66
2022/11/09 10:17:50;;;;;;;3.17;1.40;;;;;;;;;;4982510;28;20046;-66
2022/11/09 10:20:43;;;;;;;5.68;1.60;;;;;;;;;;4994418;28;20023;-65
2022/11/09 10:23:33;;;;;;;6.45;1.60;;;;;;;;;;4993756;28;20305;-65
2022/11/09 10:26:32;;;;;;;4.15;1.65;;;;;;;;;;4988684;28;20092;-64
2022/11/09 10:29:00;;;;;;;6.38;1.70;;;;;;;;;;4980406;28;20054;-65
2022/11/09 10:31:31;;;;;;;3.28;1.05;;;;;;;;;;4992522;28;20130;-65
2022/11/09 10:34:14;;;;;;;5.65;1.63;;;;;;;;;;4983533;28;20034;-65
2022/11/09 10:36:48;;;;;;;7.10;1.60;;;;;;;;;;4989169;28;20117;-65
2022/11/09 10:39:14;;;;;;;4.03;1.60;;;;;;;;;;4983437;28;20057;-64
2022/11/09 10:41:45;;;;;;;4.22;1.42;;;;;;;;;;4991731;28;20035;-64
2022/11/09 10:44:15;;;;;;;2.47;1.10;;;;;;;;;;4974520;28;20271;-65
2022/11/09 10:47:00;;;;;;;3.40;1.50;;;;;;;;;;4975691;28;20049;-65
2022/11/09 10:49:26;;;;;;;5.95;1.17;;;;;;;;;;4990043;28;20030;-65
2022/11/09 10:51:51;;;;;;;2.78;1.20;;;;;;;;;;4993996;28;20116;-66
2022/11/09 10:54:27;;;;;;;4.22;1.88;;;;;;;;;;4991736;28;20372;-65
2022/11/09 10:57:16;;;;;;;7.30;1.35;;;;;;;;;;4977978;28;20435;-65
2022/11/09 10:59:55;;;;;;;4.28;1.42;;;;;;;;;;4975477;28;20085;-66
2022/11/09 11:02:27;;;;;;;5.50;1.38;;;;;;;;;;4985885;28;20050;-65
2022/11/09 11:05:05;;;;;;;4.50;1.27;;;;;;;;;;4987422;28;20034;-65
2022/11/09 11:07:32;;;;;;;5.18;1.25;;;;;;;;;;4974635;28;20492;-65
2022/11/09 11:10:15;;;;;;;7.43;1.65;;;;;;;;;;4989355;28;20043;-64
2022/11/09 11:13:06;;;;;;;5.70;1.13;;;;;;;;;;4988719;28;20045;-65
2022/11/09 11:15:36;;;;;;;4.00;1.25;;;;;;;;;;4969761;28;20050;-65
2022/11/09 11:18:10;;;;;;;5.55;1.70;;;;;;;;;;4977471;28;20050;-66
2022/11/09 11:20:36;;;;;;;5.18;1.35;;;;;;;;;;4993786;28;20042;-65
2022/11/09 11:23:08;;;;;;;3.42;1.20;;;;;;;;;;4999280;28;20041;-65
2022/11/09 11:25:37;;;;;;;7.00;1.35;;;;;;;;;;5000085;28;20037;-64
2022/11/09 11:28:15;;;;;;;3.78;1.17;;;;;;;;;;4978956;28;20054;-65
2022/11/09 11:30:40;;;;;;;5.78;1.35;;;;;;;;;;4973915;28;20043;-65
2022/11/09 11:33:17;;;;;;;4.45;1.40;;;;;;;;;;4976468;28;20041;-64
2022/11/09 11:35:52;;;;;;;3.70;1.38;;;;;;;;;;4997302;28;20399;-66
2022/11/09 11:38:33;;;;;;;3.67;1.67;;;;;;;;;;4977691;28;20038;-64
2022/11/09 11:41:20;;;;;;;6.80;1.55;;;;;;;;;;4981751;28;20137;-64
2022/11/09 11:43:58;;;;;;;4.15;1.30;;;;;;;;;;4974184;28;20476;-65
2022/11/09 11:46:48;;;;;;;4.07;1.20;;;;;;;;;;4981137;28;20097;-64
2022/11/09 11:49:40;;;;;;;3.47;1.10;;;;;;;;;;4981881;28;20105;-65
2022/11/09 11:52:15;;;;;;;6.00;1.30;;;;;;;;;;4985566;28;20034;-64
2022/11/09 11:54:49;;;;;;;5.38;1.30;;;;;;;;;;4988110;28;20038;-64
2022/11/09 11:58:00;;;;;;;2.63;1.00;;;;;;;;;;5000371;28;20113;-65
2022/11/09 12:00:25;;;;;;;6.97;1.30;;;;;;;;;;4998460;28;20070;-63
2022/11/09 12:03:17;;;;;;;4.30;1.33;;;;;;;;;;4987422;28;20089;-64
2022/11/09 12:05:52;;;;;;;4.30;1.42;;;;;;;;;;5001442;28;20061;-64
2022/11/09 12:08:30;;;;;;;7.43;1.40;;;;;;;;;;4992390;28;20026;-64
2022/11/09 12:11:02;;;;;;;8.20;1.33;;;;;;;;;;4996197;28;20034;-64
2022/11/09 12:13:55;;;;;;;6.47;1.35;;;;;;;;;;4978513;28;20050;-66
2022/11/09 12:16:27;;;;;;;5.88;1.40;;;;;;;;;;5020198;28;20038;-65
2022/11/09 12:19:14;;;;;;;4.30;1.10;;;;;;;;;;4984976;28;20062;-65
2022/11/09 12:21:54;;;;;;;4.72;1.23;;;;;;;;;;4987518;28;20120;-65
2022/11/09 12:24:35;;;;;;;6.00;1.33;;;;;;;;;;4992496;28;20037;-65
2022/11/09 12:27:36;;;;;;;5.63;1.52;;;;;;;;;;4992034;28;20077;-65
2022/11/09 12:30:17;;;;;;;4.40;1.15;;;;;;;;;;4991742;28;20030;-65
2022/11/09 12:33:04;;;;;;;2.28;0.95;;;;;;;;;;4992742;28;20080;-65
2022/11/09 12:35:44;;;;;;;8.35;1.70;;;;;;;;;;5015785;28;20038;-65
2022/11/09 12:38:20;;;;;;;3.58;1.23;;;;;;;;;;4972397;28;20027;-65
2022/11/09 12:40:54;;;;;;;4.68;1.15;;;;;;;;;;4973137;28;20038;-65
2022/11/09 12:43:26;;;;;;;6.50;1.42;;;;;;;;;;4976929;28;20062;-64
2022/11/09 12:45:53;;;;;;;6.28;1.65;;;;;;;;;;4992653;28;20425;-66
2022/11/09 12:48:28;;;;;;;3.70;1.05;;;;;;;;;;4990543;28;20026;-65
2022/11/09 12:50:54;;;;;;;2.63;1.10;;;;;;;;;;4991269;28;20085;-66
2022/11/09 12:53:24;;;;;;;10.60;1.75;;;;;;;;;;4991980;28;20044;-65
2022/11/09 12:55:57;;;;;;;4.90;1.25;;;;;;;;;;4991258;28;20030;-65
2022/11/09 12:58:28;;;;;;;7.00;1.25;;;;;;;;;;4986179;28;20038;-65
2022/11/09 13:00:56;;;;;;;13.38;1.60;;;;;;;;;;4972938;28;20038;-65
2022/11/09 13:03:25;;;;;;;10.90;1.58;;;;;;;;;;4975368;28;20114;-65
2022/11/09 13:06:11;;;;;;;7.40;1.40;;;;;;;;;;4972900;28;20461;-65
2022/11/09 13:08:38;;;;;;;4.63;0.90;;;;;;;;;;4973888;28;20073;-65
2022/11/09 13:11:19;;;;;;;5.13;1.13;;;;;;;;;;4975924;28;20073;-65
2022/11/09 13:13:45;;;;;;;;;;;;;;;;;;4992022;28;20360;-68
2022/11/09 13:16:30;;;;;;;8.60;1.42;;;;;;;;;;4985821;28;20381;-68
2022/11/09 13:18:55;;;;;;;4.28;1.10;;;;;;;;;;4994892;28;20031;-72
2022/11/09 13:21:21;;;;;;;8.18;1.50;;;;;;;;;;4994667;28;20038;-72
2022/11/09 13:23:51;;;;;;;9.48;1.48;;;;;;;;;;4995738;28;20049;-70
2022/11/09 13:26:31;;;;;;;5.17;1.60;;;;;;;;;;4989501;28;20041;-70
2022/11/09 13:29:05;;;;;;;4.93;2.00;;;;;;;;;;4995397;28;20054;-70
2022/11/09 13:32:08;;;;;;;4.07;1.45;;;;;;;;;;4990544;28;20037;-66
2022/11/09 13:34:42;;;;;;;3.13;1.20;;;;;;;;;;4991471;28;20085;-65
2022/11/09 13:37:42;;;;;;;4.00;1.20;;;;;;;;;;4993820;28;20088;-65
2022/11/09 13:40:29;;;;;;;7.25;1.50;;;;;;;;;;4986864;28;20161;-66
2022/11/09 13:43:01;;;;;;;9.90;1.67;;;;;;;;;;4989855;28;20030;-65
2022/11/09 13:45:42;;;;;;;3.45;1.30;;;;;;;;;;4976292;28;20058;-66
2022/11/09 13:48:22;;;;;;;3.17;1.35;;;;;;;;;;5004739;28;20114;-68
2022/11/09 13:50:53;;;;;;;3.67;1.60;;;;;;;;;;4994289;28;20145;-68
2022/11/09 13:53:37;;;;;;;7.40;1.75;;;;;;;;;;4984902;28;20292;-68
2022/11/09 13:56:37;;;;;;;2.33;0.95;;;;;;;;;;4975773;28;20353;-68
2022/11/09 13:59:21;;;;;;;6.55;1.50;;;;;;;;;;4981975;28;20053;-68
2022/11/09 14:01:56;;;;;;;4.43;1.40;;;;;;;;;;4981482;28;20037;-67
2022/11/09 14:04:37;;;;;;;4.38;1.42;;;;;;;;;;4979003;28;20037;-69
2022/11/09 14:07:14;;;;;;;5.97;1.55;;;;;;;;;;4981149;28;20031;-66
2022/11/09 14:09:48;;;;;;;9.02;1.60;;;;;;;;;;5001168;28;20127;-68
2022/11/09 14:12:26;;;;;;;6.00;1.40;;;;;;;;;;5012186;28;20038;-67
2022/11/09 14:15:09;;;;;;;6.10;1.27;;;;;;;;;;4990425;28;20498;-67
2022/11/09 14:17:44;;;;;;;2.90;1.15;;;;;;;;;;4994517;28;20038;-69
2022/11/09 14:20:33;;;;;;;5.85;1.27;;;;;;;;;;4995715;28;20111;-67
2022/11/09 14:22:59;;;;;;;3.55;1.25;;;;;;;;;;5000340;28;20046;-67
2022/11/09 14:25:25;;;;;;;8.73;1.40;;;;;;;;;;4995942;28;20041;-68
2022/11/09 14:27:57;;;;;;;6.30;1.15;;;;;;;;;;5011300;28;20085;-68
2022/11/09 14:30:26;;;;;;;4.28;1.30;;;;;;;;;;4998476;28;20053;-67
2022/11/09 14:32:53;;;;;;;6.03;1.25;;;;;;;;;;4994115;28;20392;-66
2022/11/09 14:35:34;;;;;;;4.25;1.23;;;;;;;;;;4992862;28;20041;-66
2022/11/09 14:38:12;;;;;;;4.80;1.30;;;;;;;;;;5003395;28;20065;-67
2022/11/09 14:40:43;;;;;;;5.57;1.25;;;;;;;;;;5004028;28;20069;-65
2022/11/09 14:43:34;;;;;;;7.63;1.75;;;;;;;;;;5001811;28;20437;-66
2022/11/09 14:46:06;;;;;;;8.48;1.60;;;;;;;;;;4984961;28;20074;-63
2022/11/09 14:48:32;;;;;;;6.68;1.50;;;;;;;;;;5006717;28;20081;-63
2022/11/09 14:51:01;;;;;;;7.32;1.58;;;;;;;;;;4989110;28;20034;-64
2022/11/09 14:53:29;;;;;;;5.43;1.60;;;;;;;;;;4991643;28;20430;-64
2022/11/09 14:55:59;;;;;;;6.97;1.50;;;;;;;;;;4978639;28;20039;-64
2022/11/09 14:58:26;;;;;;;7.22;1.80;;;;;;;;;;4973740;28;20652;-63
2022/11/09 15:01:23;;;;;;;4.72;1.40;;;;;;;;;;4989816;28;20427;-64
2022/11/09 15:04:21;;;;;;;5.97;1.60;;;;;;;;;;4977892;28;20388;-64